CST4KB BIKF-KGRB
Flight info
| Callsign | CST4KB |
|---|---|
| Flight time | N/A |
| Altitude | 36000 |
| Route | 64N034W 63N047W/M085F380 DCT MAXAR N966B MUSLO/N0488F380 N958A LOPVI DCT 56N071W 52N078W 48N083W DCT CEWDA |
| Aircraft | B789/H-SDE1E2E3FGHIJ2J3J4J5M1RWXY/LB1D1 |
Departure
| Time | N/A |
|---|---|
| Airport | Keflavik International Airport (BIKF) |
Arrival
| Time | 2026-04-19 18:29 |
|---|---|
| Airport | Austin Straubel International Airport (KGRB) |
| Time | Latitude | Longitude | Altitude | Speed | Heading |
|---|---|---|---|---|---|
| 2026-04-19 18:21 | 44.51868 | -88.32343 | 5062 ft | 273 kts | 152° |
| 2026-04-19 18:22 | 44.50230 | -88.31070 | 4796 ft | 266 kts | 152° |
| 2026-04-19 18:22 | 44.48628 | -88.29825 | 4551 ft | 262 kts | 152° |
| 2026-04-19 18:22 | 44.47026 | -88.28581 | 4324 ft | 266 kts | 152° |
| 2026-04-19 18:22 | 44.45415 | -88.27333 | 4103 ft | 262 kts | 151° |
| 2026-04-19 18:23 | 44.43792 | -88.26222 | 3883 ft | 264 kts | 158° |
| 2026-04-19 18:23 | 44.42038 | -88.25571 | 3617 ft | 258 kts | 173° |
| 2026-04-19 18:23 | 44.40266 | -88.25253 | 3437 ft | 257 kts | 176° |
| 2026-04-19 18:23 | 44.38484 | -88.24966 | 3376 ft | 253 kts | 175° |
| 2026-04-19 18:24 | 44.36815 | -88.24676 | 3285 ft | 233 kts | 174° |
| 2026-04-19 18:24 | 44.35367 | -88.23691 | 3000 ft | 233 kts | 137° |
| 2026-04-19 18:24 | 44.34682 | -88.21770 | 2722 ft | 215 kts | 95° |
| 2026-04-19 18:24 | 44.34884 | -88.19811 | 2563 ft | 193 kts | 70° |
| 2026-04-19 18:25 | 44.35157 | -88.18079 | 2540 ft | 171 kts | 72° |
| 2026-04-19 18:25 | 44.35376 | -88.16571 | 2469 ft | 149 kts | 72° |
| 2026-04-19 18:25 | 44.35595 | -88.15113 | 2433 ft | 158 kts | 72° |
| 2026-04-19 18:25 | 44.35826 | -88.13609 | 2441 ft | 158 kts | 71° |
| 2026-04-19 18:26 | 44.36371 | -88.12351 | 2169 ft | 152 kts | 31° |
| 2026-04-19 18:26 | 44.37258 | -88.11737 | 2145 ft | 139 kts | 19° |
| 2026-04-19 18:26 | 44.38182 | -88.11506 | 1947 ft | 137 kts | 346° |
| 2026-04-19 18:26 | 44.39001 | -88.12055 | 1971 ft | 125 kts | 332° |
| 2026-04-19 18:27 | 44.39851 | -88.12517 | 2141 ft | 134 kts | 337° |
| 2026-04-19 18:27 | 44.40742 | -88.12989 | 2086 ft | 139 kts | 345° |
| 2026-04-19 18:27 | 44.41699 | -88.13282 | 1809 ft | 142 kts | 345° |
| 2026-04-19 18:27 | 44.42701 | -88.13323 | 1577 ft | 143 kts | 356° |
| 2026-04-19 18:28 | 44.43707 | -88.13339 | 1359 ft | 146 kts | 359° |
| 2026-04-19 18:28 | 44.44737 | -88.13339 | 1180 ft | 146 kts | 356° |
| 2026-04-19 18:28 | 44.45741 | -88.13346 | 986 ft | 143 kts | 354° |
| 2026-04-19 18:28 | 44.46747 | -88.13358 | 784 ft | 146 kts | 356° |
| 2026-04-19 18:29 | 44.47711 | -88.13364 | 699 ft | 124 kts | 360° |
| 2026-04-19 18:29 | 44.48265 | -88.13365 | 696 ft | 46 kts | 360° |
| 2026-04-19 18:29 | 44.48522 | -88.13361 | 696 ft | 26 kts | 18° |
| 2026-04-19 18:29 | 44.48613 | -88.13224 | 693 ft | 15 kts | 46° |
| 2026-04-19 18:30 | 44.48698 | -88.13144 | 693 ft | 15 kts | 29° |
| 2026-04-19 18:30 | 44.48792 | -88.13069 | 693 ft | 16 kts | 30° |
| 2026-04-19 18:30 | 44.48894 | -88.12987 | 698 ft | 17 kts | 30° |
| 2026-04-19 18:30 | 44.49001 | -88.12898 | 698 ft | 17 kts | 37° |
| 2026-04-19 18:31 | 44.49060 | -88.12855 | 696 ft | 1 kts | 359° |
| 2026-04-19 18:31 | 44.49086 | -88.12856 | 698 ft | 5 kts | 359° |
| 2026-04-19 18:31 | 44.49101 | -88.12856 | 698 ft | 2 kts | 359° |
| 2026-04-19 18:31 | 44.49108 | -88.12856 | 698 ft | 0 kts | 359° |